sensor_id;sensor_type;location;lat;lon;timestamp;temperature;humidity
70074;DHT22;57445;51.058;3.698;2023-06-24T00:00:23;20.40;77.70
70074;DHT22;57445;51.058;3.698;2023-06-24T00:02:50;20.30;78.10
70074;DHT22;57445;51.058;3.698;2023-06-24T00:05:19;20.50;77.60
70074;DHT22;57445;51.058;3.698;2023-06-24T00:07:47;20.60;77.30
70074;DHT22;57445;51.058;3.698;2023-06-24T00:10:15;20.80;76.90
70074;DHT22;57445;51.058;3.698;2023-06-24T00:12:42;20.50;77.60
70074;DHT22;57445;51.058;3.698;2023-06-24T00:15:11;20.60;77.50
70074;DHT22;57445;51.058;3.698;2023-06-24T00:17:38;20.50;77.70
70074;DHT22;57445;51.058;3.698;2023-06-24T00:20:06;20.40;78.50
70074;DHT22;57445;51.058;3.698;2023-06-24T00:22:37;20.30;78.50
70074;DHT22;57445;51.058;3.698;2023-06-24T00:25:05;20.30;78.60
70074;DHT22;57445;51.058;3.698;2023-06-24T00:27:32;20.20;79.00
70074;DHT22;57445;51.058;3.698;2023-06-24T00:30:00;20.20;79.20
70074;DHT22;57445;51.058;3.698;2023-06-24T00:32:29;20.20;79.60
70074;DHT22;57445;51.058;3.698;2023-06-24T00:34:56;20.20;79.10
70074;DHT22;57445;51.058;3.698;2023-06-24T00:37:26;20.30;79.30
70074;DHT22;57445;51.058;3.698;2023-06-24T00:39:53;20.20;79.60
70074;DHT22;57445;51.058;3.698;2023-06-24T00:42:21;20.10;80.00
70074;DHT22;57445;51.058;3.698;2023-06-24T00:44:48;20.00;80.10
70074;DHT22;57445;51.058;3.698;2023-06-24T00:47:16;20.00;79.60
70074;DHT22;57445;51.058;3.698;2023-06-24T00:49:46;20.20;79.70
70074;DHT22;57445;51.058;3.698;2023-06-24T00:52:13;19.90;79.90
70074;DHT22;57445;51.058;3.698;2023-06-24T00:54:42;19.80;80.10
70074;DHT22;57445;51.058;3.698;2023-06-24T00:57:09;19.90;80.20
70074;DHT22;57445;51.058;3.698;2023-06-24T00:59:37;19.80;80.10
70074;DHT22;57445;51.058;3.698;2023-06-24T01:02:05;19.70;80.40
70074;DHT22;57445;51.058;3.698;2023-06-24T01:04:33;19.90;80.00
70074;DHT22;57445;51.058;3.698;2023-06-24T01:07:03;19.90;79.70
70074;DHT22;57445;51.058;3.698;2023-06-24T01:09:31;20.00;79.60
70074;DHT22;57445;51.058;3.698;2023-06-24T01:11:59;20.00;79.40
70074;DHT22;57445;51.058;3.698;2023-06-24T01:14:26;19.90;80.00
70074;DHT22;57445;51.058;3.698;2023-06-24T01:16:55;19.70;80.70
70074;DHT22;57445;51.058;3.698;2023-06-24T01:19:31;19.40;81.10
70074;DHT22;57445;51.058;3.698;2023-06-24T01:22:06;19.60;81.10
70074;DHT22;57445;51.058;3.698;2023-06-24T01:24:45;19.50;81.20
70074;DHT22;57445;51.058;3.698;2023-06-24T01:27:28;19.50;81.30
70074;DHT22;57445;51.058;3.698;2023-06-24T01:30:13;19.60;81.10
70074;DHT22;57445;51.058;3.698;2023-06-24T01:32:50;19.60;81.10
70074;DHT22;57445;51.058;3.698;2023-06-24T01:35:19;19.50;81.40
70074;DHT22;57445;51.058;3.698;2023-06-24T01:37:48;19.40;81.80
70074;DHT22;57445;51.058;3.698;2023-06-24T01:40:18;19.30;82.30
70074;DHT22;57445;51.058;3.698;2023-06-24T01:42:47;19.30;82.20
70074;DHT22;57445;51.058;3.698;2023-06-24T01:45:16;19.40;82.00
70074;DHT22;57445;51.058;3.698;2023-06-24T01:47:47;19.40;82.00
70074;DHT22;57445;51.058;3.698;2023-06-24T01:50:16;19.30;82.50
70074;DHT22;57445;51.058;3.698;2023-06-24T01:52:46;19.20;82.50
70074;DHT22;57445;51.058;3.698;2023-06-24T01:55:15;19.30;82.50
70074;DHT22;57445;51.058;3.698;2023-06-24T01:57:43;19.40;82.10
70074;DHT22;57445;51.058;3.698;2023-06-24T02:00:11;19.30;82.20
70074;DHT22;57445;51.058;3.698;2023-06-24T02:02:39;19.20;82.80
70074;DHT22;57445;51.058;3.698;2023-06-24T02:05:10;19.10;83.30
70074;DHT22;57445;51.058;3.698;2023-06-24T02:07:39;19.00;83.50
70074;DHT22;57445;51.058;3.698;2023-06-24T02:10:08;19.10;83.90
70074;DHT22;57445;51.058;3.698;2023-06-24T02:12:36;18.90;84.00
70074;DHT22;57445;51.058;3.698;2023-06-24T02:15:05;18.90;84.20
70074;DHT22;57445;51.058;3.698;2023-06-24T02:17:33;18.80;84.30
70074;DHT22;57445;51.058;3.698;2023-06-24T02:20:01;18.80;84.60
70074;DHT22;57445;51.058;3.698;2023-06-24T02:22:31;18.70;84.60
70074;DHT22;57445;51.058;3.698;2023-06-24T02:25:00;18.70;84.80
70074;DHT22;57445;51.058;3.698;2023-06-24T02:27:28;18.70;85.10
70074;DHT22;57445;51.058;3.698;2023-06-24T02:29:55;18.60;85.20
70074;DHT22;57445;51.058;3.698;2023-06-24T02:32:24;18.60;85.30
70074;DHT22;57445;51.058;3.698;2023-06-24T02:34:51;18.60;85.60
70074;DHT22;57445;51.058;3.698;2023-06-24T02:37:19;18.50;85.70
70074;DHT22;57445;51.058;3.698;2023-06-24T02:39:46;18.50;85.90
70074;DHT22;57445;51.058;3.698;2023-06-24T02:42:15;18.40;86.10
70074;DHT22;57445;51.058;3.698;2023-06-24T02:44:42;18.60;86.40
70074;DHT22;57445;51.058;3.698;2023-06-24T02:47:11;18.50;86.30
70074;DHT22;57445;51.058;3.698;2023-06-24T02:49:39;18.40;86.50
70074;DHT22;57445;51.058;3.698;2023-06-24T02:52:07;18.40;86.50
70074;DHT22;57445;51.058;3.698;2023-06-24T02:54:35;18.40;86.50
70074;DHT22;57445;51.058;3.698;2023-06-24T02:57:05;18.40;86.60
70074;DHT22;57445;51.058;3.698;2023-06-24T02:59:34;18.40;86.70
70074;DHT22;57445;51.058;3.698;2023-06-24T03:02:02;18.30;87.00
70074;DHT22;57445;51.058;3.698;2023-06-24T03:04:31;18.30;87.20
70074;DHT22;57445;51.058;3.698;2023-06-24T03:06:59;18.20;87.40
70074;DHT22;57445;51.058;3.698;2023-06-24T03:09:27;18.20;87.70
70074;DHT22;57445;51.058;3.698;2023-06-24T03:11:54;18.20;87.90
70074;DHT22;57445;51.058;3.698;2023-06-24T03:14:21;18.10;87.90
70074;DHT22;57445;51.058;3.698;2023-06-24T03:16:50;18.10;88.20
70074;DHT22;57445;51.058;3.698;2023-06-24T03:19:18;18.20;88.30
70074;DHT22;57445;51.058;3.698;2023-06-24T03:21:45;18.10;88.40
70074;DHT22;57445;51.058;3.698;2023-06-24T03:24:13;18.10;88.40
70074;DHT22;57445;51.058;3.698;2023-06-24T03:26:40;18.20;88.40
70074;DHT22;57445;51.058;3.698;2023-06-24T03:29:08;18.10;88.70
70074;DHT22;57445;51.058;3.698;2023-06-24T03:31:35;18.20;88.70
70074;DHT22;57445;51.058;3.698;2023-06-24T03:34:04;18.10;88.70
70074;DHT22;57445;51.058;3.698;2023-06-24T03:36:31;18.10;88.80
70074;DHT22;57445;51.058;3.698;2023-06-24T03:39:00;18.10;89.10
70074;DHT22;57445;51.058;3.698;2023-06-24T03:41:29;18.00;89.30
70074;DHT22;57445;51.058;3.698;2023-06-24T03:43:56;18.10;89.90
70074;DHT22;57445;51.058;3.698;2023-06-24T03:46:24;17.90;90.00
70074;DHT22;57445;51.058;3.698;2023-06-24T03:48:51;17.90;90.00
70074;DHT22;57445;51.058;3.698;2023-06-24T03:51:20;17.90;90.10
70074;DHT22;57445;51.058;3.698;2023-06-24T03:53:48;18.00;90.10
70074;DHT22;57445;51.058;3.698;2023-06-24T03:56:16;18.00;90.10
70074;DHT22;57445;51.058;3.698;2023-06-24T03:58:43;18.20;90.10
70074;DHT22;57445;51.058;3.698;2023-06-24T04:01:11;18.10;90.00
70074;DHT22;57445;51.058;3.698;2023-06-24T04:03:38;18.10;90.00
70074;DHT22;57445;51.058;3.698;2023-06-24T04:06:06;18.30;89.90
70074;DHT22;57445;51.058;3.698;2023-06-24T04:08:35;18.20;89.70
70074;DHT22;57445;51.058;3.698;2023-06-24T04:11:05;18.20;89.80
70074;DHT22;57445;51.058;3.698;2023-06-24T04:13:34;18.20;90.00
70074;DHT22;57445;51.058;3.698;2023-06-24T04:16:01;18.30;90.20
70074;DHT22;57445;51.058;3.698;2023-06-24T04:18:29;18.20;90.20
70074;DHT22;57445;51.058;3.698;2023-06-24T04:20:57;18.20;90.20
70074;DHT22;57445;51.058;3.698;2023-06-24T04:23:24;18.20;90.20
70074;DHT22;57445;51.058;3.698;2023-06-24T04:25:53;18.30;90.10
70074;DHT22;57445;51.058;3.698;2023-06-24T04:28:21;18.30;90.20
70074;DHT22;57445;51.058;3.698;2023-06-24T04:30:48;18.30;90.40
70074;DHT22;57445;51.058;3.698;2023-06-24T04:33:15;18.20;90.50
70074;DHT22;57445;51.058;3.698;2023-06-24T04:35:43;18.30;90.50
70074;DHT22;57445;51.058;3.698;2023-06-24T04:38:10;18.30;90.40
70074;DHT22;57445;51.058;3.698;2023-06-24T04:40:44;18.30;90.40
70074;DHT22;57445;51.058;3.698;2023-06-24T04:43:12;18.50;90.40
70074;DHT22;57445;51.058;3.698;2023-06-24T04:45:40;18.60;90.10
70074;DHT22;57445;51.058;3.698;2023-06-24T04:48:07;18.60;90.10
70074;DHT22;57445;51.058;3.698;2023-06-24T04:50:35;18.50;90.10
70074;DHT22;57445;51.058;3.698;2023-06-24T04:53:02;18.50;90.30
70074;DHT22;57445;51.058;3.698;2023-06-24T04:55:29;18.60;90.00
70074;DHT22;57445;51.058;3.698;2023-06-24T04:57:57;18.50;90.20
70074;DHT22;57445;51.058;3.698;2023-06-24T05:00:26;18.40;90.50
70074;DHT22;57445;51.058;3.698;2023-06-24T05:02:53;18.30;90.60
70074;DHT22;57445;51.058;3.698;2023-06-24T05:05:21;18.40;90.50
70074;DHT22;57445;51.058;3.698;2023-06-24T05:07:48;18.60;90.50
70074;DHT22;57445;51.058;3.698;2023-06-24T05:10:15;18.50;90.60
70074;DHT22;57445;51.058;3.698;2023-06-24T05:12:43;18.50;90.70
70074;DHT22;57445;51.058;3.698;2023-06-24T05:15:10;18.50;91.10
70074;DHT22;57445;51.058;3.698;2023-06-24T05:17:39;18.50;91.00
70074;DHT22;57445;51.058;3.698;2023-06-24T05:20:07;18.40;91.00
70074;DHT22;57445;51.058;3.698;2023-06-24T05:22:35;18.70;90.80
70074;DHT22;57445;51.058;3.698;2023-06-24T05:25:02;18.80;90.70
70074;DHT22;57445;51.058;3.698;2023-06-24T05:27:30;19.30;90.00
70074;DHT22;57445;51.058;3.698;2023-06-24T05:29:57;20.20;87.80
70074;DHT22;57445;51.058;3.698;2023-06-24T05:32:25;21.80;84.80
70074;DHT22;57445;51.058;3.698;2023-06-24T05:34:53;23.70;80.40
70074;DHT22;57445;51.058;3.698;2023-06-24T05:37:21;25.50;74.20
70074;DHT22;57445;51.058;3.698;2023-06-24T05:39:48;27.10;69.80
70074;DHT22;57445;51.058;3.698;2023-06-24T05:42:16;27.90;67.30
70074;DHT22;57445;51.058;3.698;2023-06-24T05:44:43;28.40;65.50
70074;DHT22;57445;51.058;3.698;2023-06-24T05:47:11;29.30;64.60
70074;DHT22;57445;51.058;3.698;2023-06-24T05:49:38;29.30;62.20
70074;DHT22;57445;51.058;3.698;2023-06-24T05:52:07;29.00;62.80
70074;DHT22;57445;51.058;3.698;2023-06-24T05:54:35;30.00;62.50
70074;DHT22;57445;51.058;3.698;2023-06-24T05:57:02;30.70;60.20
70074;DHT22;57445;51.058;3.698;2023-06-24T05:59:32;31.40;60.40
70074;DHT22;57445;51.058;3.698;2023-06-24T06:01:59;31.60;58.30
70074;DHT22;57445;51.058;3.698;2023-06-24T06:04:27;31.70;59.20
70074;DHT22;57445;51.058;3.698;2023-06-24T06:06:55;31.40;56.90
70074;DHT22;57445;51.058;3.698;2023-06-24T06:09:24;31.30;58.50
70074;DHT22;57445;51.058;3.698;2023-06-24T06:11:51;31.80;58.10
70074;DHT22;57445;51.058;3.698;2023-06-24T06:14:18;32.60;56.90
70074;DHT22;57445;51.058;3.698;2023-06-24T06:16:46;32.80;55.60
70074;DHT22;57445;51.058;3.698;2023-06-24T06:19:13;32.90;55.60
70074;DHT22;57445;51.058;3.698;2023-06-24T06:21:41;33.30;55.80
70074;DHT22;57445;51.058;3.698;2023-06-24T06:24:08;33.30;55.20
70074;DHT22;57445;51.058;3.698;2023-06-24T06:26:41;33.50;53.80
70074;DHT22;57445;51.058;3.698;2023-06-24T06:29:09;32.90;55.30
70074;DHT22;57445;51.058;3.698;2023-06-24T06:31:36;32.50;54.60
70074;DHT22;57445;51.058;3.698;2023-06-24T06:34:06;31.90;55.90
70074;DHT22;57445;51.058;3.698;2023-06-24T06:36:34;31.60;57.10
70074;DHT22;57445;51.058;3.698;2023-06-24T06:39:02;31.40;57.80
70074;DHT22;57445;51.058;3.698;2023-06-24T06:41:29;31.50;56.80
70074;DHT22;57445;51.058;3.698;2023-06-24T06:43:58;31.40;57.70
70074;DHT22;57445;51.058;3.698;2023-06-24T06:46:26;31.60;57.50
70074;DHT22;57445;51.058;3.698;2023-06-24T06:48:53;31.90;57.40
70074;DHT22;57445;51.058;3.698;2023-06-24T06:51:21;31.70;57.20
70074;DHT22;57445;51.058;3.698;2023-06-24T06:53:50;31.50;57.00
70074;DHT22;57445;51.058;3.698;2023-06-24T06:56:18;31.90;57.50
70074;DHT22;57445;51.058;3.698;2023-06-24T06:58:45;32.20;56.70
70074;DHT22;57445;51.058;3.698;2023-06-24T07:01:14;31.10;57.60
70074;DHT22;57445;51.058;3.698;2023-06-24T07:03:41;31.00;57.70
70074;DHT22;57445;51.058;3.698;2023-06-24T07:06:09;30.70;58.70
70074;DHT22;57445;51.058;3.698;2023-06-24T07:08:36;31.10;59.30
70074;DHT22;57445;51.058;3.698;2023-06-24T07:11:04;30.80;58.80
70074;DHT22;57445;51.058;3.698;2023-06-24T07:13:32;31.30;58.60
70074;DHT22;57445;51.058;3.698;2023-06-24T07:15:59;30.70;59.00
70074;DHT22;57445;51.058;3.698;2023-06-24T07:18:28;30.60;59.40
70074;DHT22;57445;51.058;3.698;2023-06-24T07:20:56;31.20;58.70
70074;DHT22;57445;51.058;3.698;2023-06-24T07:23:24;31.00;57.40
70074;DHT22;57445;51.058;3.698;2023-06-24T07:25:51;30.00;59.40
70074;DHT22;57445;51.058;3.698;2023-06-24T07:28:19;29.00;61.50
70074;DHT22;57445;51.058;3.698;2023-06-24T07:30:46;27.80;63.70
70074;DHT22;57445;51.058;3.698;2023-06-24T07:33:14;27.50;64.60
70074;DHT22;57445;51.058;3.698;2023-06-24T07:35:43;26.90;65.70
70074;DHT22;57445;51.058;3.698;2023-06-24T07:38:10;26.00;67.50
70074;DHT22;57445;51.058;3.698;2023-06-24T07:40:38;25.00;70.60
70074;DHT22;57445;51.058;3.698;2023-06-24T07:43:06;24.10;73.10
70074;DHT22;57445;51.058;3.698;2023-06-24T07:45:33;23.90;74.30
70074;DHT22;57445;51.058;3.698;2023-06-24T07:48:00;23.90;74.60
70074;DHT22;57445;51.058;3.698;2023-06-24T07:50:28;23.80;74.70
70074;DHT22;57445;51.058;3.698;2023-06-24T07:52:57;23.80;74.90
70074;DHT22;57445;51.058;3.698;2023-06-24T07:55:24;23.80;74.80
70074;DHT22;57445;51.058;3.698;2023-06-24T07:57:51;23.70;75.60
70074;DHT22;57445;51.058;3.698;2023-06-24T08:00:19;24.10;74.70
70074;DHT22;57445;51.058;3.698;2023-06-24T08:02:47;24.20;74.40
70074;DHT22;57445;51.058;3.698;2023-06-24T08:05:14;24.20;74.50
70074;DHT22;57445;51.058;3.698;2023-06-24T08:07:44;23.90;75.50
70074;DHT22;57445;51.058;3.698;2023-06-24T08:10:13;23.90;75.90
70074;DHT22;57445;51.058;3.698;2023-06-24T08:12:40;23.90;75.50
70074;DHT22;57445;51.058;3.698;2023-06-24T08:15:08;23.70;76.30
70074;DHT22;57445;51.058;3.698;2023-06-24T08:17:36;23.90;76.20
70074;DHT22;57445;51.058;3.698;2023-06-24T08:20:03;24.20;75.60
70074;DHT22;57445;51.058;3.698;2023-06-24T08:22:31;24.00;76.00
70074;DHT22;57445;51.058;3.698;2023-06-24T08:24:58;24.30;75.10
70074;DHT22;57445;51.058;3.698;2023-06-24T08:27:27;24.00;75.00
70074;DHT22;57445;51.058;3.698;2023-06-24T08:29:54;23.90;76.00
70074;DHT22;57445;51.058;3.698;2023-06-24T08:32:22;23.60;76.80
70074;DHT22;57445;51.058;3.698;2023-06-24T08:34:50;23.50;77.70
70074;DHT22;57445;51.058;3.698;2023-06-24T08:37:21;23.50;78.00
70074;DHT22;57445;51.058;3.698;2023-06-24T08:39:48;23.80;77.30
70074;DHT22;57445;51.058;3.698;2023-06-24T08:42:16;23.70;77.60
70074;DHT22;57445;51.058;3.698;2023-06-24T08:44:45;23.80;77.50
70074;DHT22;57445;51.058;3.698;2023-06-24T08:47:12;23.70;77.50
70074;DHT22;57445;51.058;3.698;2023-06-24T08:49:42;23.70;75.90
70074;DHT22;57445;51.058;3.698;2023-06-24T08:52:14;23.70;76.70
70074;DHT22;57445;51.058;3.698;2023-06-24T08:54:45;24.10;76.10
70074;DHT22;57445;51.058;3.698;2023-06-24T08:57:13;24.70;74.00
70074;DHT22;57445;51.058;3.698;2023-06-24T08:59:41;24.40;75.60
70074;DHT22;57445;51.058;3.698;2023-06-24T09:02:10;24.50;75.40
70074;DHT22;57445;51.058;3.698;2023-06-24T09:04:39;24.30;74.90
70074;DHT22;57445;51.058;3.698;2023-06-24T09:07:07;24.20;74.00
70074;DHT22;57445;51.058;3.698;2023-06-24T09:09:41;24.00;75.50
70074;DHT22;57445;51.058;3.698;2023-06-24T09:12:10;24.70;74.20
70074;DHT22;57445;51.058;3.698;2023-06-24T09:14:37;24.90;73.20
70074;DHT22;57445;51.058;3.698;2023-06-24T09:17:06;25.10;71.60
70074;DHT22;57445;51.058;3.698;2023-06-24T09:19:37;25.70;70.70
70074;DHT22;57445;51.058;3.698;2023-06-24T09:22:06;26.00;70.10
70074;DHT22;57445;51.058;3.698;2023-06-24T09:24:34;25.70;70.80
70074;DHT22;57445;51.058;3.698;2023-06-24T09:27:03;26.00;68.90
70074;DHT22;57445;51.058;3.698;2023-06-24T09:29:31;26.00;67.60
70074;DHT22;57445;51.058;3.698;2023-06-24T09:31:59;25.90;66.80
70074;DHT22;57445;51.058;3.698;2023-06-24T09:34:28;26.30;67.10
70074;DHT22;57445;51.058;3.698;2023-06-24T09:36:57;25.90;67.90
70074;DHT22;57445;51.058;3.698;2023-06-24T09:39:25;25.40;69.50
70074;DHT22;57445;51.058;3.698;2023-06-24T09:41:55;25.80;69.90
70074;DHT22;57445;51.058;3.698;2023-06-24T09:44:23;26.50;68.70
70074;DHT22;57445;51.058;3.698;2023-06-24T09:46:50;26.20;68.90
70074;DHT22;57445;51.058;3.698;2023-06-24T09:49:18;26.30;68.70
70074;DHT22;57445;51.058;3.698;2023-06-24T09:51:46;26.50;67.50
70074;DHT22;57445;51.058;3.698;2023-06-24T09:54:15;26.50;67.70
70074;DHT22;57445;51.058;3.698;2023-06-24T09:56:43;26.30;68.90
70074;DHT22;57445;51.058;3.698;2023-06-24T09:59:12;26.20;68.20
70074;DHT22;57445;51.058;3.698;2023-06-24T10:01:39;26.20;68.70
70074;DHT22;57445;51.058;3.698;2023-06-24T10:04:08;26.50;67.70
70074;DHT22;57445;51.058;3.698;2023-06-24T10:06:38;26.20;66.50
70074;DHT22;57445;51.058;3.698;2023-06-24T10:09:05;25.80;67.40
70074;DHT22;57445;51.058;3.698;2023-06-24T10:11:34;25.60;68.30
70074;DHT22;57445;51.058;3.698;2023-06-24T10:14:02;26.10;67.80
70074;DHT22;57445;51.058;3.698;2023-06-24T10:16:30;26.00;66.80
70074;DHT22;57445;51.058;3.698;2023-06-24T10:18:59;25.90;64.70
70074;DHT22;57445;51.058;3.698;2023-06-24T10:24:10;26.60;64.30
70074;DHT22;57445;51.058;3.698;2023-06-24T10:26:39;27.00;63.90
70074;DHT22;57445;51.058;3.698;2023-06-24T10:29:13;27.20;64.20
70074;DHT22;57445;51.058;3.698;2023-06-24T10:31:53;27.00;65.40
70074;DHT22;57445;51.058;3.698;2023-06-24T10:34:28;26.50;64.20
70074;DHT22;57445;51.058;3.698;2023-06-24T10:36:56;26.30;64.50
70074;DHT22;57445;51.058;3.698;2023-06-24T10:42:38;26.60;63.60
70074;DHT22;57445;51.058;3.698;2023-06-24T10:45:17;26.30;63.50
70074;DHT22;57445;51.058;3.698;2023-06-24T10:47:45;26.30;63.70
70074;DHT22;57445;51.058;3.698;2023-06-24T10:50:13;26.70;64.60
70074;DHT22;57445;51.058;3.698;2023-06-24T10:52:42;26.60;63.70
70074;DHT22;57445;51.058;3.698;2023-06-24T10:55:10;26.70;62.20
70074;DHT22;57445;51.058;3.698;2023-06-24T10:57:39;27.30;61.00
70074;DHT22;57445;51.058;3.698;2023-06-24T11:00:06;27.80;61.20
70074;DHT22;57445;51.058;3.698;2023-06-24T11:02:34;28.40;61.80
70074;DHT22;57445;51.058;3.698;2023-06-24T11:05:02;28.70;60.70
70074;DHT22;57445;51.058;3.698;2023-06-24T11:07:31;27.80;61.30
70074;DHT22;57445;51.058;3.698;2023-06-24T11:10:01;27.70;62.00
70074;DHT22;57445;51.058;3.698;2023-06-24T11:12:30;27.30;61.80
70074;DHT22;57445;51.058;3.698;2023-06-24T11:15:00;26.80;63.10
70074;DHT22;57445;51.058;3.698;2023-06-24T11:17:27;26.70;64.10
70074;DHT22;57445;51.058;3.698;2023-06-24T11:19:55;27.00;64.50
70074;DHT22;57445;51.058;3.698;2023-06-24T11:22:23;26.60;62.80
70074;DHT22;57445;51.058;3.698;2023-06-24T11:24:51;26.50;63.50
70074;DHT22;57445;51.058;3.698;2023-06-24T11:27:23;26.70;63.50
70074;DHT22;57445;51.058;3.698;2023-06-24T11:29:51;27.10;62.90
70074;DHT22;57445;51.058;3.698;2023-06-24T11:32:20;27.00;63.10
70074;DHT22;57445;51.058;3.698;2023-06-24T11:34:48;27.00;61.60
70074;DHT22;57445;51.058;3.698;2023-06-24T11:37:16;26.60;60.60
70074;DHT22;57445;51.058;3.698;2023-06-24T11:39:44;26.60;60.50
70074;DHT22;57445;51.058;3.698;2023-06-24T11:42:13;26.60;59.40
70074;DHT22;57445;51.058;3.698;2023-06-24T11:44:41;26.70;59.50
70074;DHT22;57445;51.058;3.698;2023-06-24T11:47:09;26.70;61.50
70074;DHT22;57445;51.058;3.698;2023-06-24T11:49:52;26.80;61.00
70074;DHT22;57445;51.058;3.698;2023-06-24T11:52:23;27.10;61.50
70074;DHT22;57445;51.058;3.698;2023-06-24T11:54:54;27.20;60.40
70074;DHT22;57445;51.058;3.698;2023-06-24T11:57:25;26.90;60.50
70074;DHT22;57445;51.058;3.698;2023-06-24T12:00:12;26.90;61.00
70074;DHT22;57445;51.058;3.698;2023-06-24T12:02:39;27.10;61.20
70074;DHT22;57445;51.058;3.698;2023-06-24T12:05:09;27.20;61.10
70074;DHT22;57445;51.058;3.698;2023-06-24T12:07:36;27.20;63.70
70074;DHT22;57445;51.058;3.698;2023-06-24T12:10:05;27.00;64.20
70074;DHT22;57445;51.058;3.698;2023-06-24T12:12:32;27.40;62.70
70074;DHT22;57445;51.058;3.698;2023-06-24T12:15:01;27.50;61.10
70074;DHT22;57445;51.058;3.698;2023-06-24T12:17:29;27.30;61.20
70074;DHT22;57445;51.058;3.698;2023-06-24T12:19:56;27.20;60.50
70074;DHT22;57445;51.058;3.698;2023-06-24T12:22:25;27.50;61.00
70074;DHT22;57445;51.058;3.698;2023-06-24T12:24:53;28.30;59.20
70074;DHT22;57445;51.058;3.698;2023-06-24T12:27:20;28.00;59.50
70074;DHT22;57445;51.058;3.698;2023-06-24T12:29:48;27.60;60.20
70074;DHT22;57445;51.058;3.698;2023-06-24T12:32:16;27.90;60.40
70074;DHT22;57445;51.058;3.698;2023-06-24T12:34:43;28.20;60.70
70074;DHT22;57445;51.058;3.698;2023-06-24T12:37:11;28.60;59.50
70074;DHT22;57445;51.058;3.698;2023-06-24T12:39:40;28.70;60.10
70074;DHT22;57445;51.058;3.698;2023-06-24T12:42:08;28.70;59.70
70074;DHT22;57445;51.058;3.698;2023-06-24T12:44:35;28.50;59.50
70074;DHT22;57445;51.058;3.698;2023-06-24T12:47:03;28.00;60.80
70074;DHT22;57445;51.058;3.698;2023-06-24T12:49:31;27.40;62.30
70074;DHT22;57445;51.058;3.698;2023-06-24T12:51:58;27.00;62.70
70074;DHT22;57445;51.058;3.698;2023-06-24T12:54:26;26.90;62.60
70074;DHT22;57445;51.058;3.698;2023-06-24T12:56:55;27.00;63.00
70074;DHT22;57445;51.058;3.698;2023-06-24T12:59:23;26.80;62.70
70074;DHT22;57445;51.058;3.698;2023-06-24T13:01:52;27.10;62.80
70074;DHT22;57445;51.058;3.698;2023-06-24T13:04:19;27.50;62.50
70074;DHT22;57445;51.058;3.698;2023-06-24T13:06:49;28.10;61.90
70074;DHT22;57445;51.058;3.698;2023-06-24T13:09:16;28.20;61.30
70074;DHT22;57445;51.058;3.698;2023-06-24T13:11:44;28.50;62.10
70074;DHT22;57445;51.058;3.698;2023-06-24T13:14:13;28.20;59.80
70074;DHT22;57445;51.058;3.698;2023-06-24T13:16:41;28.10;60.00
70074;DHT22;57445;51.058;3.698;2023-06-24T13:19:08;28.00;60.40
70074;DHT22;57445;51.058;3.698;2023-06-24T13:21:36;27.90;60.00
70074;DHT22;57445;51.058;3.698;2023-06-24T13:24:04;28.00;60.10
70074;DHT22;57445;51.058;3.698;2023-06-24T13:26:32;28.30;59.30
70074;DHT22;57445;51.058;3.698;2023-06-24T13:28:59;28.70;58.20
70074;DHT22;57445;51.058;3.698;2023-06-24T13:31:30;29.30;57.40
70074;DHT22;57445;51.058;3.698;2023-06-24T13:33:57;30.00;54.50
70074;DHT22;57445;51.058;3.698;2023-06-24T13:36:29;29.80;53.90
70074;DHT22;57445;51.058;3.698;2023-06-24T13:38:57;29.40;53.70
70074;DHT22;57445;51.058;3.698;2023-06-24T13:41:24;28.90;54.50
70074;DHT22;57445;51.058;3.698;2023-06-24T13:43:55;28.70;56.20
70074;DHT22;57445;51.058;3.698;2023-06-24T13:46:23;28.50;56.80
70074;DHT22;57445;51.058;3.698;2023-06-24T13:48:52;28.20;57.70
70074;DHT22;57445;51.058;3.698;2023-06-24T13:51:20;27.80;58.10
70074;DHT22;57445;51.058;3.698;2023-06-24T13:53:48;28.00;58.60
70074;DHT22;57445;51.058;3.698;2023-06-24T13:56:16;28.00;57.80
70074;DHT22;57445;51.058;3.698;2023-06-24T13:58:44;28.40;56.90
70074;DHT22;57445;51.058;3.698;2023-06-24T14:01:12;28.50;56.40
70074;DHT22;57445;51.058;3.698;2023-06-24T14:03:39;28.50;56.50
70074;DHT22;57445;51.058;3.698;2023-06-24T14:06:09;28.30;57.50
70074;DHT22;57445;51.058;3.698;2023-06-24T14:08:36;28.40;57.80
70074;DHT22;57445;51.058;3.698;2023-06-24T14:11:04;29.10;56.80
70074;DHT22;57445;51.058;3.698;2023-06-24T14:13:31;28.70;57.20
70074;DHT22;57445;51.058;3.698;2023-06-24T14:15:59;28.50;57.40
70074;DHT22;57445;51.058;3.698;2023-06-24T14:18:29;28.60;57.20
70074;DHT22;57445;51.058;3.698;2023-06-24T14:20:58;28.50;57.80
70074;DHT22;57445;51.058;3.698;2023-06-24T14:23:27;28.90;57.30
70074;DHT22;57445;51.058;3.698;2023-06-24T14:25:54;29.20;57.10
70074;DHT22;57445;51.058;3.698;2023-06-24T14:28:22;29.60;56.90
70074;DHT22;57445;51.058;3.698;2023-06-24T14:30:50;30.00;55.40
70074;DHT22;57445;51.058;3.698;2023-06-24T14:33:18;29.90;55.80
70074;DHT22;57445;51.058;3.698;2023-06-24T14:35:45;29.60;55.00
70074;DHT22;57445;51.058;3.698;2023-06-24T14:38:13;29.40;55.00
70074;DHT22;57445;51.058;3.698;2023-06-24T14:40:42;29.10;54.50
70074;DHT22;57445;51.058;3.698;2023-06-24T14:43:09;29.00;54.60
70074;DHT22;57445;51.058;3.698;2023-06-24T14:45:37;28.80;55.20
70074;DHT22;57445;51.058;3.698;2023-06-24T14:48:04;28.80;55.30
70074;DHT22;57445;51.058;3.698;2023-06-24T14:50:32;29.10;55.10
70074;DHT22;57445;51.058;3.698;2023-06-24T14:52:59;29.00;53.80
70074;DHT22;57445;51.058;3.698;2023-06-24T14:55:27;29.00;54.20
70074;DHT22;57445;51.058;3.698;2023-06-24T14:57:55;28.70;54.40
70074;DHT22;57445;51.058;3.698;2023-06-24T15:00:23;28.60;54.10
70074;DHT22;57445;51.058;3.698;2023-06-24T15:02:50;28.90;53.30
70074;DHT22;57445;51.058;3.698;2023-06-24T15:05:18;28.60;53.60
70074;DHT22;57445;51.058;3.698;2023-06-24T15:07:45;28.30;53.90
70074;DHT22;57445;51.058;3.698;2023-06-24T15:10:12;28.30;54.30
70074;DHT22;57445;51.058;3.698;2023-06-24T15:12:40;28.60;53.30
70074;DHT22;57445;51.058;3.698;2023-06-24T15:15:09;28.70;53.00
70074;DHT22;57445;51.058;3.698;2023-06-24T15:17:37;28.50;53.30
70074;DHT22;57445;51.058;3.698;2023-06-24T15:20:07;28.40;53.60
70074;DHT22;57445;51.058;3.698;2023-06-24T15:22:34;28.30;53.30
70074;DHT22;57445;51.058;3.698;2023-06-24T15:25:02;28.40;53.30
70074;DHT22;57445;51.058;3.698;2023-06-24T15:27:30;28.80;52.70
70074;DHT22;57445;51.058;3.698;2023-06-24T15:29:58;28.30;53.40
70074;DHT22;57445;51.058;3.698;2023-06-24T15:32:26;28.60;54.00
70074;DHT22;57445;51.058;3.698;2023-06-24T15:34:54;28.50;53.90
70074;DHT22;57445;51.058;3.698;2023-06-24T15:37:22;28.50;53.50
70074;DHT22;57445;51.058;3.698;2023-06-24T15:39:50;28.50;53.40
70074;DHT22;57445;51.058;3.698;2023-06-24T15:42:19;28.30;53.00